createdAt,value
2023-01-21T00:02:09.232Z,51.51
2023-01-21T00:04:38.157Z,51.54
2023-01-21T00:07:06.821Z,51.58
2023-01-21T00:09:36.683Z,51.88
2023-01-21T00:12:05.556Z,51.77
2023-01-21T00:14:34.001Z,51.73
2023-01-21T00:17:02.397Z,51.74
2023-01-21T00:19:30.791Z,51.85
2023-01-21T00:21:59.238Z,51.52
2023-01-21T00:24:27.740Z,51.44
2023-01-21T00:26:57.544Z,51.92
2023-01-21T00:29:26.516Z,51.71
2023-01-21T00:31:54.932Z,51.54
2023-01-21T00:34:23.287Z,51.39
2023-01-21T00:36:51.659Z,51.74
2023-01-21T00:39:20.126Z,51.47
2023-01-21T00:41:48.522Z,51.34
2023-01-21T00:44:19.303Z,51.67
2023-01-21T00:46:47.644Z,51.41
2023-01-21T00:49:16.057Z,51.41
2023-01-21T00:51:44.455Z,51.41
2023-01-21T00:54:12.865Z,51.46
2023-01-21T00:56:41.192Z,51.71
2023-01-21T00:59:09.897Z,51.38
2023-01-21T01:01:39.740Z,51.79
2023-01-21T01:04:08.252Z,51.53
2023-01-21T01:06:36.607Z,51.71
2023-01-21T01:09:05.459Z,51.53
2023-01-21T01:11:34.243Z,51.55
2023-01-21T01:14:02.544Z,51.73
2023-01-21T01:16:30.907Z,51.33
2023-01-21T01:19:01.210Z,51.84
2023-01-21T01:21:30.277Z,51.56
2023-01-21T01:24:00.742Z,51.39
2023-01-21T01:26:29.118Z,51.39
2023-01-21T01:28:57.660Z,51.34
2023-01-21T01:31:25.973Z,51.71
2023-01-21T01:33:54.310Z,51.57
2023-01-21T01:36:24.900Z,51.68
2023-01-21T01:38:54.312Z,51.72
2023-01-21T01:41:25.475Z,51.74
2023-01-21T01:43:58.828Z,51.67
2023-01-21T01:46:30.150Z,51.73
2023-01-21T01:49:10.355Z,51.67
2023-01-21T01:51:47.175Z,51.83
2023-01-21T01:54:20.464Z,51.64
2023-01-21T01:56:53.415Z,51.66
2023-01-21T01:59:22.265Z,51.78
2023-01-21T02:01:50.846Z,51.76
2023-01-21T02:04:24.763Z,51.96
2023-01-21T02:06:56.117Z,51.88
2023-01-21T02:09:29.703Z,51.79
2023-01-21T02:11:59.313Z,51.51
2023-01-21T02:14:27.951Z,51.92
2023-01-21T02:17:18.041Z,51.74
2023-01-21T02:20:38.004Z,51.98
2023-01-21T02:23:18.405Z,51.86
2023-01-21T02:26:38.807Z,51.72
2023-01-21T02:29:45.030Z,52.07
2023-01-21T02:32:39.669Z,52.05
2023-01-21T02:35:15.375Z,51.79
2023-01-21T02:37:51.082Z,52.26
2023-01-21T02:40:27.190Z,51.84
2023-01-21T02:43:06.616Z,52.04
2023-01-21T02:45:40.285Z,51.85
2023-01-21T02:48:15.980Z,52.02
2023-01-21T02:50:50.670Z,51.95
2023-01-21T02:53:25.940Z,51.80
2023-01-21T02:55:54.735Z,51.94
2023-01-21T02:58:29.000Z,51.63
2023-01-21T03:01:10.816Z,51.86
2023-01-21T03:04:02.815Z,51.83
2023-01-21T03:06:43.599Z,51.69
2023-01-21T03:09:23.062Z,51.91
2023-01-21T03:12:10.146Z,51.80
2023-01-21T03:15:02.109Z,51.56
2023-01-21T03:17:41.648Z,51.65
2023-01-21T03:20:14.623Z,51.57
2023-01-21T03:22:45.682Z,51.80
2023-01-21T03:25:16.050Z,51.48
2023-01-21T03:27:47.664Z,51.70
2023-01-21T03:30:19.717Z,51.51
2023-01-21T03:32:52.285Z,51.64
2023-01-21T03:35:25.761Z,51.55
2023-01-21T03:37:59.716Z,51.64
2023-01-21T03:40:31.997Z,51.61
2023-01-21T03:43:00.506Z,51.47
2023-01-21T03:45:36.844Z,51.74
2023-01-21T03:48:17.825Z,51.62
2023-01-21T03:50:51.122Z,51.70
2023-01-21T03:53:21.495Z,51.71
2023-01-21T03:55:51.767Z,51.65
2023-01-21T03:58:20.052Z,51.92
2023-01-21T04:00:49.268Z,51.86
2023-01-21T04:03:17.590Z,51.63
2023-01-21T04:05:45.897Z,51.98
2023-01-21T04:08:14.157Z,51.82
2023-01-21T04:10:44.164Z,51.89
2023-01-21T04:13:12.414Z,51.60
2023-01-21T04:15:40.765Z,51.89
2023-01-21T04:18:09.066Z,51.61
2023-01-21T04:20:37.359Z,51.56
2023-01-21T04:23:05.642Z,51.64
2023-01-21T04:25:33.897Z,51.50
2023-01-21T04:28:03.577Z,51.64
2023-01-21T04:30:31.960Z,51.66
2023-01-21T04:33:00.334Z,51.72
2023-01-21T04:35:28.666Z,51.70
2023-01-21T04:37:57.539Z,51.54
2023-01-21T04:40:25.754Z,51.63
2023-01-21T04:42:54.037Z,51.63
2023-01-21T04:45:24.170Z,51.63
2023-01-21T04:47:52.466Z,51.73
2023-01-21T04:50:20.971Z,51.74
2023-01-21T04:52:49.291Z,51.65
2023-01-21T04:55:17.811Z,51.67
2023-01-21T04:57:46.166Z,51.75
2023-01-21T05:00:16.197Z,51.76
2023-01-21T05:02:46.058Z,51.86
2023-01-21T05:05:14.380Z,51.78
2023-01-21T05:07:42.727Z,51.95
2023-01-21T05:10:16.947Z,51.81
2023-01-21T05:12:45.414Z,51.68
2023-01-21T05:15:13.847Z,51.94
2023-01-21T05:17:42.155Z,51.80
2023-01-21T05:20:13.467Z,51.86
2023-01-21T05:22:41.835Z,51.78
2023-01-21T05:25:10.807Z,51.86
2023-01-21T05:27:39.080Z,51.55
2023-01-21T05:30:09.169Z,51.59
2023-01-21T05:32:37.706Z,51.60
2023-01-21T05:35:06.455Z,51.62
2023-01-21T05:37:36.211Z,51.73
2023-01-21T05:40:05.517Z,51.85
2023-01-21T05:42:33.808Z,51.82
2023-01-21T05:45:02.421Z,51.79
2023-01-21T05:47:30.618Z,51.82
2023-01-21T05:49:58.863Z,51.79
2023-01-21T05:52:27.077Z,51.82
2023-01-21T05:55:02.355Z,51.76
2023-01-21T05:57:31.342Z,51.84
2023-01-21T05:59:59.938Z,51.71
2023-01-21T06:02:28.436Z,52.03
2023-01-21T06:04:56.700Z,51.88
2023-01-21T06:07:24.955Z,51.96
2023-01-21T06:09:53.190Z,51.75
2023-01-21T06:12:24.745Z,52.12
2023-01-21T06:14:53.147Z,52.08
2023-01-21T06:17:21.579Z,51.93
2023-01-21T06:19:49.802Z,52.35
2023-01-21T06:22:18.956Z,52.15
2023-01-21T06:24:47.274Z,52.19
2023-01-21T06:27:15.549Z,52.28
2023-01-21T06:29:45.217Z,52.09
2023-01-21T06:32:13.463Z,52.39
2023-01-21T06:34:41.707Z,52.35
2023-01-21T06:37:09.951Z,52.32
2023-01-21T06:39:38.842Z,52.33
2023-01-21T06:42:07.150Z,52.18
2023-01-21T06:44:35.396Z,52.49
2023-01-21T06:47:05.230Z,52.44
2023-01-21T06:49:33.523Z,52.52
2023-01-21T06:52:01.925Z,52.44
2023-01-21T06:54:30.583Z,52.48
2023-01-21T06:57:00.056Z,52.63
2023-01-21T06:59:28.374Z,52.41
2023-01-21T07:01:58.977Z,52.64
2023-01-21T07:04:29.130Z,52.48
2023-01-21T07:06:57.502Z,52.35
2023-01-21T07:09:26.302Z,52.49
2023-01-21T07:11:55.555Z,52.63
2023-01-21T07:14:23.855Z,52.65
2023-01-21T07:16:52.103Z,52.62
2023-01-21T07:19:20.361Z,52.74
2023-01-21T07:21:50.364Z,52.49
2023-01-21T07:24:18.625Z,52.72
2023-01-21T07:26:46.908Z,52.85
2023-01-21T07:29:15.395Z,52.66
2023-01-21T07:31:43.727Z,52.68
2023-01-21T07:34:12.045Z,52.84
2023-01-21T07:36:40.281Z,52.75
2023-01-21T07:39:09.964Z,53.04
2023-01-21T07:41:38.210Z,52.88
2023-01-21T07:44:06.950Z,53.04
2023-01-21T07:46:36.126Z,52.72
2023-01-21T07:49:04.614Z,52.66
2023-01-21T07:51:32.896Z,52.70
2023-01-21T07:54:01.192Z,52.70
2023-01-21T07:56:30.797Z,52.90
2023-01-21T07:58:59.094Z,52.72
2023-01-21T08:01:30.995Z,52.74
2023-01-21T08:03:59.550Z,52.99
2023-01-21T08:06:28.186Z,53.01
2023-01-21T08:08:56.427Z,52.90
2023-01-21T08:11:24.699Z,52.89
2023-01-21T08:13:54.320Z,53.07
2023-01-21T08:16:22.649Z,52.92
2023-01-21T08:18:51.165Z,53.13
2023-01-21T08:21:20.893Z,52.95
2023-01-21T08:23:49.280Z,52.89
2023-01-21T08:26:17.545Z,53.17
2023-01-21T08:28:45.756Z,53.12
2023-01-21T08:31:15.815Z,52.91
2023-01-21T08:33:44.082Z,52.87
2023-01-21T08:36:12.331Z,52.95
2023-01-21T08:38:41.134Z,52.88
2023-01-21T08:41:10.604Z,52.92
2023-01-21T08:43:40.584Z,52.79
2023-01-21T08:46:08.844Z,52.99
2023-01-21T08:48:39.119Z,52.94
2023-01-21T08:51:07.858Z,52.86
2023-01-21T08:53:36.118Z,52.95
2023-01-21T08:56:06.023Z,52.97
2023-01-21T08:58:34.548Z,52.71
2023-01-21T09:01:08.899Z,52.71
2023-01-21T09:03:38.804Z,52.73
2023-01-21T09:06:08.461Z,53.25
2023-01-21T09:08:37.366Z,52.81
2023-01-21T09:11:07.067Z,52.69
2023-01-21T09:13:38.648Z,52.87
2023-01-21T09:16:10.425Z,52.93
2023-01-21T09:18:40.239Z,52.79
2023-01-21T09:21:10.495Z,52.70
2023-01-21T09:23:40.156Z,52.68
2023-01-21T09:26:14.274Z,52.83
2023-01-21T09:28:43.799Z,52.71
2023-01-21T09:31:15.441Z,52.73
2023-01-21T09:33:47.889Z,52.66
2023-01-21T09:36:19.110Z,52.53
2023-01-21T09:38:49.084Z,52.72
2023-01-21T09:41:26.936Z,52.63
2023-01-21T09:44:06.542Z,52.37
2023-01-21T09:46:42.985Z,52.70
2023-01-21T09:49:19.895Z,52.59
2023-01-21T09:51:54.459Z,52.33
2023-01-21T09:54:30.310Z,52.79
2023-01-21T09:57:33.267Z,52.50
2023-01-21T10:00:27.222Z,52.31
2023-01-21T10:03:04.514Z,52.76
2023-01-21T10:06:06.027Z,52.37
2023-01-21T10:08:56.985Z,52.53
2023-01-21T10:11:47.775Z,52.56
2023-01-21T10:15:13.007Z,52.57
2023-01-21T10:17:53.492Z,52.93
2023-01-21T10:20:26.030Z,52.79
2023-01-21T10:23:01.907Z,52.81
2023-01-21T10:25:34.087Z,52.62
2023-01-21T10:28:10.480Z,52.45
2023-01-21T10:30:44.746Z,52.77
2023-01-21T10:33:19.714Z,52.54
2023-01-21T10:36:37.640Z,52.99
2023-01-21T10:39:18.795Z,52.72
2023-01-21T10:42:06.272Z,52.83
2023-01-21T10:44:46.255Z,52.65
2023-01-21T10:47:24.180Z,52.74
2023-01-21T10:50:01.535Z,52.50
2023-01-21T10:52:38.595Z,52.67
2023-01-21T10:55:27.445Z,52.64
2023-01-21T10:58:01.470Z,52.55
2023-01-21T11:00:34.200Z,52.06
2023-01-21T11:03:09.690Z,52.58
2023-01-21T11:05:40.412Z,52.48
2023-01-21T11:08:10.105Z,52.26
2023-01-21T11:10:41.303Z,52.52
2023-01-21T11:13:13.245Z,52.06
2023-01-21T11:15:49.083Z,52.03
2023-01-21T11:18:31.116Z,52.32
2023-01-21T11:21:01.455Z,52.35
2023-01-21T11:23:32.314Z,52.03
2023-01-21T11:26:09.415Z,52.00
2023-01-21T11:28:38.659Z,51.99
2023-01-21T11:31:13.120Z,52.23
2023-01-21T11:33:43.274Z,52.31
2023-01-21T11:36:15.485Z,52.33
2023-01-21T11:38:45.053Z,52.05
2023-01-21T11:41:22.577Z,52.01
2023-01-21T11:43:53.337Z,52.00
2023-01-21T11:46:35.808Z,51.98
2023-01-21T11:49:31.368Z,52.21
2023-01-21T11:52:19.835Z,52.19
2023-01-21T11:54:49.038Z,51.81
2023-01-21T11:57:31.727Z,52.10
2023-01-21T12:00:10.173Z,51.83
2023-01-21T12:02:43.518Z,51.97
2023-01-21T12:05:18.201Z,51.92
2023-01-21T12:07:52.415Z,51.93
2023-01-21T12:10:29.198Z,51.60
2023-01-21T12:13:20.241Z,52.00
2023-01-21T12:16:11.952Z,51.75
2023-01-21T12:19:04.079Z,52.01
2023-01-21T12:21:53.736Z,51.93
2023-01-21T12:24:41.468Z,51.88
2023-01-21T12:27:18.823Z,51.78
2023-01-21T12:30:05.751Z,52.12
2023-01-21T12:32:38.808Z,51.80
2023-01-21T12:35:13.605Z,51.71
2023-01-21T12:37:48.450Z,51.68
2023-01-21T12:40:21.673Z,51.52
2023-01-21T12:42:55.129Z,51.89
2023-01-21T12:45:31.808Z,51.46
2023-01-21T12:48:04.674Z,51.22
2023-01-21T12:50:39.691Z,51.10
2023-01-21T12:53:22.148Z,50.97
2023-01-21T12:56:22.274Z,51.32
2023-01-21T12:58:56.407Z,50.93
2023-01-21T13:01:44.306Z,51.14
2023-01-21T13:04:39.334Z,51.12
2023-01-21T13:07:18.527Z,50.86
2023-01-21T13:09:55.673Z,50.88
2023-01-21T13:12:26.763Z,50.71
2023-01-21T13:15:02.104Z,50.89
2023-01-21T13:17:36.088Z,50.51
2023-01-21T13:20:19.533Z,50.53
2023-01-21T13:23:05.293Z,50.41
2023-01-21T13:25:43.757Z,50.92
2023-01-21T13:28:20.157Z,50.78
2023-01-21T13:30:56.369Z,50.72
2023-01-21T13:33:41.828Z,50.48
2023-01-21T13:36:30.764Z,50.46
2023-01-21T13:39:06.332Z,50.37
2023-01-21T13:41:53.582Z,50.27
2023-01-21T13:45:00.343Z,50.23
2023-01-21T13:47:55.027Z,50.17
2023-01-21T13:50:37.533Z,50.23
2023-01-21T13:53:36.373Z,50.33
2023-01-21T13:56:23.091Z,50.29
2023-01-21T13:58:57.820Z,50.09
2023-01-21T14:01:31.096Z,50.08
2023-01-21T14:04:07.263Z,49.62
2023-01-21T14:06:43.355Z,49.90
2023-01-21T14:09:20.688Z,49.70
2023-01-21T14:11:56.310Z,49.79
2023-01-21T14:15:02.404Z,49.97
2023-01-21T14:18:13.191Z,49.72
2023-01-21T14:21:21.807Z,50.28
2023-01-21T14:24:14.735Z,50.03
2023-01-21T14:27:14.991Z,50.11
2023-01-21T14:29:48.069Z,50.43
2023-01-21T14:32:22.989Z,50.68
2023-01-21T14:35:07.508Z,50.56
2023-01-21T14:37:43.945Z,50.21
2023-01-21T14:40:20.163Z,50.61
2023-01-21T14:42:50.315Z,50.75
2023-01-21T14:45:22.244Z,50.98
2023-01-21T14:47:53.208Z,50.66
2023-01-21T14:50:54.064Z,50.50
2023-01-21T14:53:25.795Z,50.84
2023-01-21T14:56:22.713Z,50.89
2023-01-21T14:58:54.366Z,50.73
2023-01-21T15:01:36.912Z,50.87
2023-01-21T15:04:16.535Z,51.04
2023-01-21T15:06:45.065Z,50.87
2023-01-21T15:09:23.352Z,50.83
2023-01-21T15:12:00.772Z,50.98
2023-01-21T15:14:32.070Z,51.02
2023-01-21T15:17:03.657Z,50.95
2023-01-21T15:19:34.174Z,51.38
2023-01-21T15:22:46.666Z,51.11
2023-01-21T15:25:20.863Z,51.04
2023-01-21T15:28:44.241Z,51.53
2023-01-21T15:31:41.571Z,51.22
2023-01-21T15:34:16.400Z,51.20
2023-01-21T15:36:48.485Z,51.39
2023-01-21T15:39:19.543Z,51.21
2023-01-21T15:42:06.675Z,51.18
2023-01-21T15:44:59.672Z,51.30
2023-01-21T15:47:55.423Z,51.25
2023-01-21T15:50:29.183Z,51.22
2023-01-21T15:53:22.592Z,51.25
2023-01-21T15:56:17.392Z,51.48
2023-01-21T15:58:58.185Z,51.40
2023-01-21T16:01:35.407Z,51.35
2023-01-21T16:04:26.652Z,51.51
2023-01-21T16:07:10.910Z,51.17
2023-01-21T16:09:55.698Z,51.65
2023-01-21T16:12:33.232Z,51.53
2023-01-21T16:15:12.116Z,51.38
2023-01-21T16:17:58.955Z,51.27
2023-01-21T16:20:27.493Z,51.48
2023-01-21T16:22:59.479Z,51.61
2023-01-21T16:25:28.280Z,51.13
2023-01-21T16:27:57.052Z,51.31
2023-01-21T16:30:30.820Z,51.30
2023-01-21T16:33:14.983Z,51.32
2023-01-21T16:35:48.615Z,51.41
2023-01-21T16:38:19.573Z,51.20
2023-01-21T16:40:50.511Z,51.32
2023-01-21T16:43:25.551Z,51.31
2023-01-21T16:45:56.772Z,51.48
2023-01-21T16:48:29.893Z,51.40
2023-01-21T16:50:58.513Z,51.18
2023-01-21T16:53:27.920Z,51.17
2023-01-21T16:55:58.708Z,51.48
2023-01-21T16:58:30.333Z,51.47
2023-01-21T17:01:11.820Z,51.14
2023-01-21T17:03:41.569Z,51.18
2023-01-21T17:06:16.054Z,51.09
2023-01-21T17:08:48.459Z,51.27
2023-01-21T17:11:16.777Z,51.08
2023-01-21T17:13:45.974Z,51.27
2023-01-21T17:16:24.917Z,51.15
2023-01-21T17:18:58.623Z,51.25
2023-01-21T17:21:34.139Z,51.09
2023-01-21T17:24:06.241Z,50.93
2023-01-21T17:26:38.946Z,50.99
2023-01-21T17:29:18.105Z,50.99
2023-01-21T17:31:47.089Z,50.83
2023-01-21T17:34:25.162Z,51.02
2023-01-21T17:36:55.473Z,51.06
2023-01-21T17:40:00.693Z,50.99
2023-01-21T17:42:40.641Z,50.92
2023-01-21T17:45:20.826Z,50.87
2023-01-21T17:48:08.688Z,50.44
2023-01-21T17:50:47.233Z,50.96
2023-01-21T17:53:23.344Z,50.65
2023-01-21T17:56:01.840Z,50.59
2023-01-21T17:58:55.815Z,50.84
2023-01-21T18:01:24.185Z,50.84
2023-01-21T18:03:52.540Z,50.51
2023-01-21T18:06:26.891Z,50.38
2023-01-21T18:08:56.395Z,50.65
2023-01-21T18:11:24.807Z,50.69
2023-01-21T18:13:53.321Z,50.50
2023-01-21T18:16:21.708Z,50.56
2023-01-21T18:18:50.601Z,50.18
2023-01-21T18:21:22.382Z,50.48
2023-01-21T18:23:51.372Z,50.31
2023-01-21T18:26:28.556Z,50.46
2023-01-21T18:28:56.934Z,50.65
2023-01-21T18:31:25.348Z,50.45
2023-01-21T18:33:53.762Z,50.50
2023-01-21T18:36:23.430Z,50.39
2023-01-21T18:38:51.742Z,50.16
2023-01-21T18:41:20.047Z,50.22
2023-01-21T18:43:48.340Z,50.65
2023-01-21T18:46:19.625Z,50.35
2023-01-21T18:48:48.034Z,50.54
2023-01-21T18:51:16.424Z,50.55
2023-01-21T18:53:46.243Z,50.46
2023-01-21T18:56:15.637Z,50.77
2023-01-21T18:58:44.390Z,50.32
2023-01-21T19:01:23.104Z,50.35
2023-01-21T19:03:55.034Z,50.19
2023-01-21T19:06:25.309Z,50.35
2023-01-21T19:08:55.458Z,50.50
2023-01-21T19:11:23.905Z,50.24
2023-01-21T19:13:52.512Z,50.29
2023-01-21T19:16:22.242Z,50.18
2023-01-21T19:18:50.687Z,50.44
2023-01-21T19:21:19.022Z,50.21
2023-01-21T19:23:47.518Z,50.32
2023-01-21T19:26:18.057Z,50.37
2023-01-21T19:28:46.448Z,50.46
2023-01-21T19:31:14.744Z,50.57
2023-01-21T19:33:45.614Z,50.53
2023-01-21T19:36:16.466Z,50.50
2023-01-21T19:38:51.353Z,50.00
2023-01-21T19:41:21.164Z,50.42
2023-01-21T19:43:49.502Z,50.30
2023-01-21T19:46:18.640Z,50.06
2023-01-21T19:48:50.077Z,50.14
2023-01-21T19:51:18.496Z,50.13
2023-01-21T19:53:46.946Z,50.07
2023-01-21T19:56:19.945Z,50.02
2023-01-21T19:58:49.717Z,50.17
2023-01-21T20:01:18.171Z,49.75
2023-01-21T20:03:59.259Z,49.84
2023-01-21T20:06:29.302Z,50.05
2023-01-21T20:09:00.517Z,50.00
2023-01-21T20:11:28.959Z,50.01
2023-01-21T20:13:58.709Z,49.97
2023-01-21T20:16:27.368Z,50.19
2023-01-21T20:18:56.449Z,49.89
2023-01-21T20:21:25.010Z,50.19
2023-01-21T20:23:53.338Z,49.95
2023-01-21T20:26:26.226Z,50.00
2023-01-21T20:28:54.744Z,50.38
2023-01-21T20:31:24.677Z,50.35
2023-01-21T20:33:53.129Z,50.37
2023-01-21T20:36:24.422Z,50.42
2023-01-21T20:38:54.110Z,50.20
2023-01-21T20:41:22.718Z,50.29
2023-01-21T20:43:51.254Z,50.22
2023-01-21T20:46:24.846Z,50.46
2023-01-21T20:48:53.330Z,50.11
2023-01-21T20:51:22.233Z,50.47
2023-01-21T20:53:50.677Z,50.46
2023-01-21T20:56:26.338Z,50.06
2023-01-21T20:58:55.199Z,50.31
2023-01-21T21:01:27.007Z,50.45
2023-01-21T21:03:55.425Z,50.25
2023-01-21T21:06:27.732Z,50.30
2023-01-21T21:08:56.379Z,50.21
2023-01-21T21:11:24.803Z,50.45
2023-01-21T21:13:53.224Z,50.40
2023-01-21T21:16:26.330Z,50.29
2023-01-21T21:18:56.203Z,50.49
2023-01-21T21:21:25.052Z,50.09
2023-01-21T21:23:53.756Z,50.39
2023-01-21T21:26:24.741Z,50.23
2023-01-21T21:28:55.327Z,50.28
2023-01-21T21:31:26.988Z,50.51
2023-01-21T21:33:55.497Z,50.19
2023-01-21T21:36:25.040Z,50.48
2023-01-21T21:38:55.745Z,50.19
2023-01-21T21:41:44.129Z,50.33
2023-01-21T21:44:13.000Z,50.46
2023-01-21T21:47:00.001Z,50.47
2023-01-21T21:49:29.011Z,50.56
2023-01-21T21:51:59.760Z,50.90
2023-01-21T21:54:28.257Z,50.57
2023-01-21T21:56:57.175Z,50.91
2023-01-21T21:59:25.510Z,50.87
2023-01-21T22:01:55.398Z,50.94
2023-01-21T22:04:23.791Z,50.74
2023-01-21T22:06:52.103Z,50.60
2023-01-21T22:09:20.727Z,50.50
2023-01-21T22:11:49.142Z,50.53
2023-01-21T22:14:18.071Z,50.80
2023-01-21T22:16:46.677Z,50.94
2023-01-21T22:19:16.660Z,50.87
2023-01-21T22:21:45.071Z,50.88
2023-01-21T22:24:13.452Z,50.89
2023-01-21T22:26:41.797Z,50.88
2023-01-21T22:29:10.182Z,51.03
2023-01-21T22:31:38.632Z,50.76
2023-01-21T22:34:07.174Z,50.86
2023-01-21T22:36:36.873Z,51.10
2023-01-21T22:39:05.364Z,50.56
2023-01-21T22:41:34.707Z,50.81
2023-01-21T22:44:03.079Z,50.77
2023-01-21T22:46:31.537Z,50.80
2023-01-21T22:48:59.944Z,50.92
2023-01-21T22:51:28.832Z,50.94
2023-01-21T22:54:00.192Z,50.73
2023-01-21T22:56:45.316Z,50.81
2023-01-21T22:59:16.940Z,51.11
2023-01-21T23:01:45.238Z,51.09
2023-01-21T23:04:14.844Z,51.11
2023-01-21T23:06:44.674Z,51.09
2023-01-21T23:09:16.571Z,51.01
2023-01-21T23:11:45.450Z,50.95
2023-01-21T23:14:13.880Z,50.65
2023-01-21T23:16:42.301Z,51.05
2023-01-21T23:19:10.620Z,50.94
2023-01-21T23:21:39.004Z,51.08
2023-01-21T23:24:08.714Z,50.77
2023-01-21T23:26:38.639Z,50.90
2023-01-21T23:29:07.024Z,50.83
2023-01-21T23:31:35.513Z,50.79
2023-01-21T23:34:04.372Z,50.80
2023-01-21T23:36:32.778Z,51.03
2023-01-21T23:39:01.107Z,51.07
2023-01-21T23:41:29.473Z,50.98
2023-01-21T23:44:01.650Z,50.74
2023-01-21T23:46:30.197Z,50.99
2023-01-21T23:48:58.582Z,50.88
2023-01-21T23:51:26.886Z,50.96
2023-01-21T23:53:55.149Z,50.63
2023-01-21T23:56:25.980Z,50.63
2023-01-21T23:58:54.781Z,50.76
